Plus Loin — FAA3193 — position and weather

sailwx.info

Track history (hours):
 
Tides and Currents Weather Stations Pressure Air Temp Water Temp Dewpoint Dewpoint Depression Visibility Wind Speed Wind Dir Waves Ship Positions

Plus Loin

Last reported at 2017-Aug-29 15:31 UTC. Time now 2017-Sep-19 20:29 UTC.
Position N 48°39' W 002°02'.
Warning: this ship's position is 21 days out of date.

Length 9 m.

Type: Sailing vessel. MMSI: 227110240.

Date/timePositionNaut miles runAvg speedWind from/ knotsBaromVisibWave heightAir tempDewpointWater temp
2017-Aug-29 15:31N 48°39' W 002°02'1 1.8
2017-Aug-29 15:04N 48°39' W 002°02'2 5.3
2017-Aug-29 14:45N 48°41' W 002°01'  
2017-Aug-25 17:07N 48°38' W 002°02'0 0.1
2017-Aug-25 17:00N 48°38' W 002°02'2 3.9
2017-Aug-25 16:30N 48°40' W 002°04'3 6.2
2017-Aug-25 15:59N 48°39' W 002°09'2 3.3
2017-Aug-25 15:30N 48°38' W 002°10'0 0.4
2017-Aug-25 14:57N 48°38' W 002°10'0 0.0
2017-Aug-25 14:30N 48°38' W 002°10'0 0.0
2017-Aug-25 13:27N 48°38' W 002°10'0 0.2
2017-Aug-25 12:49N 48°38' W 002°09'0 0.2
2017-Aug-25 12:28N 48°38' W 002°09'0 0.0
2017-Aug-25 11:52N 48°38' W 002°09'0 0.0
2017-Aug-25 11:28N 48°38' W 002°09'0 0.1
2017-Aug-25 10:53N 48°38' W 002°09'1 3.5
2017-Aug-25 10:29N 48°39' W 002°08'3 6.4
2017-Aug-25 09:59N 48°39' W 002°03'  
2017-Aug-21 14:19N 48°38' W 002°02'0 0.9
2017-Aug-21 14:00N 48°38' W 002°02'1 1.1
2017-Aug-21 13:23N 48°38' W 002°01'0 0.1
2017-Aug-21 11:13N 48°38' W 002°02'1 2.5
2017-Aug-21 10:58N 48°38' W 002°02'1 2.8
2017-Aug-21 10:30N 48°40' W 002°02'3 5.3
2017-Aug-21 09:54N 48°42' W 001°58'  
Track history (hours):
 
Tides and Currents Weather Stations Pressure Air Temp Water Temp Dewpoint Dewpoint Depression Visibility Wind Speed Wind Dir Waves Ship Positions

Plus Loin

Last reported at 2017-Aug-29 15:31 UTC. Time now 2017-Sep-19 20:29 UTC.
Position N 48°39' W 002°02'.
Warning: this ship's position is 21 days out of date.

Length 9 m.

Type: Sailing vessel. MMSI: 227110240.

Date/timePositionNaut miles runAvg speedWind from/ knotsBaromVisibWave heightAir tempDewpointWater temp
2017-Aug-29 15:31N 48°39' W 002°02'1 1.8
2017-Aug-29 15:04N 48°39' W 002°02'2 5.3
2017-Aug-29 14:45N 48°41' W 002°01'  
2017-Aug-25 17:07N 48°38' W 002°02'0 0.1
2017-Aug-25 17:00N 48°38' W 002°02'2 3.9
2017-Aug-25 16:30N 48°40' W 002°04'3 6.2
2017-Aug-25 15:59N 48°39' W 002°09'2 3.3
2017-Aug-25 15:30N 48°38' W 002°10'0 0.4
2017-Aug-25 14:57N 48°38' W 002°10'0 0.0
2017-Aug-25 14:30N 48°38' W 002°10'0 0.0
2017-Aug-25 13:27N 48°38' W 002°10'0 0.2
2017-Aug-25 12:49N 48°38' W 002°09'0 0.2
2017-Aug-25 12:28N 48°38' W 002°09'0 0.0
2017-Aug-25 11:52N 48°38' W 002°09'0 0.0
2017-Aug-25 11:28N 48°38' W 002°09'0 0.1
2017-Aug-25 10:53N 48°38' W 002°09'1 3.5
2017-Aug-25 10:29N 48°39' W 002°08'3 6.4
2017-Aug-25 09:59N 48°39' W 002°03'  
2017-Aug-21 14:19N 48°38' W 002°02'0 0.9
2017-Aug-21 14:00N 48°38' W 002°02'1 1.1
2017-Aug-21 13:23N 48°38' W 002°01'0 0.1
2017-Aug-21 11:13N 48°38' W 002°02'1 2.5
2017-Aug-21 10:58N 48°38' W 002°02'1 2.8
2017-Aug-21 10:30N 48°40' W 002°02'3 5.3
2017-Aug-21 09:54N 48°42' W 001°58'  

Dump ship's entire track history